createdAt,value
2023-05-02T00:00:18.427Z,25.00
2023-05-02T00:01:18.438Z,25.00
2023-05-02T00:02:18.480Z,25.00
2023-05-02T00:03:18.672Z,0.00
2023-05-02T00:04:18.636Z,0.00
2023-05-02T00:05:18.489Z,0.00
2023-05-02T00:06:18.544Z,0.00
2023-05-02T00:07:18.502Z,0.00
2023-05-02T00:08:18.513Z,0.00
2023-05-02T00:09:18.531Z,0.00
2023-05-02T00:10:18.541Z,3.37
2023-05-02T00:11:18.581Z,23.01
2023-05-02T00:12:18.568Z,25.00
2023-05-02T00:13:18.611Z,25.00
2023-05-02T00:14:18.608Z,25.00
2023-05-02T00:15:18.635Z,25.00
2023-05-02T00:16:18.690Z,25.00
2023-05-02T00:17:18.768Z,25.00
2023-05-02T00:18:18.698Z,26.78
2023-05-02T00:19:18.678Z,25.00
2023-05-02T00:20:18.697Z,25.61
2023-05-02T00:21:18.700Z,25.56
2023-05-02T00:22:18.736Z,25.00
2023-05-02T00:23:18.803Z,25.00
2023-05-02T00:24:18.924Z,27.65
2023-05-02T00:25:18.975Z,26.58
2023-05-02T00:26:19.065Z,25.34
2023-05-02T00:27:19.130Z,26.15
2023-05-02T00:28:19.209Z,25.00
2023-05-02T00:29:19.305Z,25.00
2023-05-02T00:30:19.346Z,25.15
2023-05-02T00:31:19.489Z,25.33
2023-05-02T00:32:19.509Z,25.64
2023-05-02T00:33:19.594Z,25.69
2023-05-02T00:34:19.675Z,25.00
2023-05-02T00:35:19.767Z,25.00
2023-05-02T00:36:19.836Z,25.83
2023-05-02T00:37:19.921Z,27.50
2023-05-02T00:38:19.994Z,25.67
2023-05-02T00:39:20.106Z,26.21
2023-05-02T00:40:20.186Z,25.29
2023-05-02T00:41:20.280Z,26.35
2023-05-02T00:42:20.365Z,27.75
2023-05-02T00:43:20.447Z,26.99
2023-05-02T00:44:20.533Z,25.84
2023-05-02T00:45:20.655Z,27.14
2023-05-02T00:46:20.720Z,26.67
2023-05-02T00:47:20.789Z,25.00
2023-05-02T00:48:20.871Z,27.57
2023-05-02T00:49:20.952Z,26.68
2023-05-02T00:50:21.059Z,28.29
2023-05-02T00:51:21.122Z,25.81
2023-05-02T00:52:21.210Z,27.77
2023-05-02T00:53:21.286Z,25.65
2023-05-02T00:54:21.380Z,26.89
2023-05-02T00:55:21.467Z,26.54
2023-05-02T00:56:21.551Z,28.80
2023-05-02T00:57:21.649Z,25.63
2023-05-02T00:58:21.710Z,26.54
2023-05-02T00:59:21.791Z,26.42
2023-05-02T01:00:21.876Z,25.50
2023-05-02T01:01:22.038Z,26.92
2023-05-02T01:02:22.097Z,25.00
2023-05-02T01:03:22.171Z,25.46
2023-05-02T01:04:22.220Z,27.19
2023-05-02T01:05:22.266Z,27.75
2023-05-02T01:06:22.399Z,26.22
2023-05-02T01:07:22.383Z,25.00
2023-05-02T01:08:22.434Z,26.94
2023-05-02T01:09:22.484Z,25.19
2023-05-02T01:10:22.551Z,28.80
2023-05-02T01:11:22.622Z,27.31
2023-05-02T01:12:22.692Z,25.00
2023-05-02T01:13:22.730Z,28.09
2023-05-02T01:14:22.795Z,26.67
2023-05-02T01:15:22.867Z,27.83
2023-05-02T01:16:23.016Z,25.89
2023-05-02T01:17:23.095Z,27.10
2023-05-02T01:18:23.090Z,30.07
2023-05-02T01:19:23.155Z,25.04
2023-05-02T01:20:23.226Z,25.00
2023-05-02T01:21:23.308Z,26.05
2023-05-02T01:22:23.358Z,27.07
2023-05-02T01:23:23.409Z,28.00
2023-05-02T01:24:23.476Z,26.92
2023-05-02T01:25:23.544Z,27.30
2023-05-02T01:26:23.583Z,27.90
2023-05-02T01:27:23.653Z,26.92
2023-05-02T01:28:23.700Z,27.42
2023-05-02T01:29:23.770Z,28.38
2023-05-02T01:30:23.799Z,26.00
2023-05-02T01:31:23.886Z,28.63
2023-05-02T01:32:23.975Z,26.83
2023-05-02T01:33:24.021Z,28.14
2023-05-02T01:34:24.074Z,28.18
2023-05-02T01:35:24.151Z,26.52
2023-05-02T01:36:24.224Z,25.00
2023-05-02T01:37:24.306Z,26.65
2023-05-02T01:38:24.385Z,26.51
2023-05-02T01:39:24.484Z,27.19
2023-05-02T01:40:24.520Z,26.86
2023-05-02T01:41:24.589Z,25.48
2023-05-02T01:42:24.681Z,30.49
2023-05-02T01:43:24.740Z,27.59
2023-05-02T01:44:24.806Z,26.90
2023-05-02T01:45:24.854Z,25.00
2023-05-02T01:46:24.928Z,25.66
2023-05-02T01:47:25.035Z,25.11
2023-05-02T01:48:25.041Z,27.53
2023-05-02T01:49:25.128Z,26.55
2023-05-02T01:50:25.156Z,27.30
2023-05-02T01:51:25.219Z,26.09
2023-05-02T01:52:25.250Z,26.47
2023-05-02T01:53:25.311Z,27.29
2023-05-02T01:54:25.385Z,26.78
2023-05-02T01:55:25.470Z,26.26
2023-05-02T01:56:25.518Z,27.12
2023-05-02T01:57:25.616Z,26.97
2023-05-02T01:58:25.700Z,26.09
2023-05-02T01:59:25.803Z,26.64
2023-05-02T02:00:25.879Z,26.73
2023-05-02T02:01:25.959Z,26.40
2023-05-02T02:02:26.035Z,27.02
2023-05-02T02:03:26.165Z,26.06
2023-05-02T02:04:26.230Z,27.43
2023-05-02T02:05:26.290Z,26.89
2023-05-02T02:06:26.416Z,27.34
2023-05-02T02:07:26.369Z,25.90
2023-05-02T02:08:26.413Z,25.23
2023-05-02T02:09:26.464Z,29.00
2023-05-02T02:10:26.554Z,28.37
2023-05-02T02:11:26.633Z,26.80
2023-05-02T02:12:26.694Z,26.41
2023-05-02T02:13:26.773Z,26.56
2023-05-02T02:14:26.855Z,25.58
2023-05-02T02:15:26.916Z,26.05
2023-05-02T02:16:27.058Z,28.32
2023-05-02T02:17:27.191Z,26.73
2023-05-02T02:18:27.123Z,28.15
2023-05-02T02:19:27.199Z,27.57
2023-05-02T02:20:27.274Z,29.51
2023-05-02T02:21:27.609Z,27.44
2023-05-02T02:22:27.389Z,27.91
2023-05-02T02:23:27.471Z,27.77
2023-05-02T02:24:27.543Z,27.13
2023-05-02T02:25:27.620Z,26.36
2023-05-02T02:26:27.663Z,27.17
2023-05-02T02:27:27.723Z,27.49
2023-05-02T02:28:27.784Z,26.06
2023-05-02T02:29:27.807Z,27.68
2023-05-02T02:30:27.835Z,27.39
2023-05-02T02:31:27.938Z,25.73
2023-05-02T02:32:27.926Z,28.25
2023-05-02T02:33:27.929Z,27.60
2023-05-02T02:34:27.971Z,26.84
2023-05-02T02:35:28.003Z,26.50
2023-05-02T02:36:28.053Z,29.71
2023-05-02T02:37:28.145Z,28.59
2023-05-02T02:38:28.208Z,26.96
2023-05-02T02:39:28.302Z,28.72
2023-05-02T02:40:28.359Z,27.03
2023-05-02T02:41:28.440Z,26.83
2023-05-02T02:42:28.510Z,27.99
2023-05-02T02:43:28.549Z,28.50
2023-05-02T02:44:28.670Z,28.22
2023-05-02T02:45:28.729Z,27.60
2023-05-02T02:46:28.849Z,26.65
2023-05-02T02:47:28.884Z,27.65
2023-05-02T02:48:28.933Z,27.94
2023-05-02T02:49:29.008Z,27.26
2023-05-02T02:50:29.062Z,29.37
2023-05-02T02:51:29.146Z,27.99
2023-05-02T02:52:29.219Z,28.61
2023-05-02T02:53:29.325Z,27.00
2023-05-02T02:54:29.356Z,27.83
2023-05-02T02:55:29.388Z,26.55
2023-05-02T02:56:29.448Z,26.23
2023-05-02T02:57:29.488Z,26.00
2023-05-02T02:58:29.547Z,29.17
2023-05-02T02:59:29.590Z,28.64
2023-05-02T03:00:29.652Z,26.79
2023-05-02T03:01:29.765Z,28.18
2023-05-02T03:02:29.850Z,27.56
2023-05-02T03:03:29.860Z,26.70
2023-05-02T03:04:29.943Z,27.72
2023-05-02T03:05:30.013Z,29.19
2023-05-02T03:06:30.110Z,25.91
2023-05-02T03:07:30.095Z,27.74
2023-05-02T03:08:30.111Z,26.63
2023-05-02T03:09:30.271Z,25.55
2023-05-02T03:10:30.258Z,29.82
2023-05-02T03:11:30.326Z,26.18
2023-05-02T03:12:30.377Z,25.00
2023-05-02T03:13:30.413Z,28.09
2023-05-02T03:14:30.438Z,25.91
2023-05-02T03:15:30.505Z,25.89
2023-05-02T03:16:30.634Z,27.82
2023-05-02T03:17:30.587Z,26.95
2023-05-02T03:18:30.607Z,28.60
2023-05-02T03:19:30.663Z,28.20
2023-05-02T03:20:30.715Z,28.17
2023-05-02T03:21:30.737Z,25.78
2023-05-02T03:22:30.783Z,26.98
2023-05-02T03:23:30.822Z,26.85
2023-05-02T03:24:30.864Z,29.71
2023-05-02T03:25:31.024Z,26.36
2023-05-02T03:26:30.936Z,26.33
2023-05-02T03:27:30.952Z,25.30
2023-05-02T03:28:30.989Z,25.34
2023-05-02T03:29:31.055Z,25.74
2023-05-02T03:30:31.048Z,26.65
2023-05-02T03:31:31.111Z,26.39
2023-05-02T03:32:31.163Z,26.04
2023-05-02T03:33:31.175Z,26.52
2023-05-02T03:34:31.197Z,26.82
2023-05-02T03:35:31.222Z,28.10
2023-05-02T03:36:31.280Z,26.04
2023-05-02T03:37:31.301Z,26.24
2023-05-02T03:38:31.360Z,26.91
2023-05-02T03:39:31.412Z,30.62
2023-05-02T03:40:31.434Z,28.28
2023-05-02T03:41:31.484Z,27.33
2023-05-02T03:42:31.487Z,27.77
2023-05-02T03:43:31.522Z,28.53
2023-05-02T03:44:31.550Z,27.39
2023-05-02T03:45:31.611Z,27.47
2023-05-02T03:46:31.694Z,29.45
2023-05-02T03:47:31.816Z,29.01
2023-05-02T03:48:31.749Z,28.71
2023-05-02T03:49:31.776Z,28.84
2023-05-02T03:50:31.812Z,27.50
2023-05-02T03:51:31.839Z,28.10
2023-05-02T03:52:31.906Z,26.77
2023-05-02T03:53:31.918Z,27.28
2023-05-02T03:54:31.957Z,28.54
2023-05-02T03:55:31.981Z,27.18
2023-05-02T03:56:32.023Z,30.37
2023-05-02T03:57:32.072Z,27.78
2023-05-02T03:58:32.089Z,26.80
2023-05-02T03:59:32.129Z,27.89
2023-05-02T04:00:32.182Z,28.75
2023-05-02T04:01:32.213Z,26.82
2023-05-02T04:02:32.391Z,29.04
2023-05-02T04:03:32.383Z,29.41
2023-05-02T04:04:32.422Z,28.39
2023-05-02T04:05:32.414Z,27.52
2023-05-02T04:06:32.470Z,29.05
2023-05-02T04:07:32.487Z,28.69
2023-05-02T04:08:32.500Z,27.98
2023-05-02T04:09:32.551Z,27.89
2023-05-02T04:10:32.577Z,26.54
2023-05-02T04:11:32.617Z,26.36
2023-05-02T04:12:32.648Z,27.21
2023-05-02T04:13:32.709Z,27.18
2023-05-02T04:14:32.716Z,27.73
2023-05-02T04:15:32.717Z,27.44
2023-05-02T04:16:33.800Z,27.45
2023-05-02T04:17:32.822Z,25.82
2023-05-02T04:18:32.748Z,28.00
2023-05-02T04:19:32.761Z,27.45
2023-05-02T04:20:32.763Z,29.16
2023-05-02T04:21:32.775Z,28.34
2023-05-02T04:22:32.784Z,26.63
2023-05-02T04:23:32.808Z,28.60
2023-05-02T04:24:32.861Z,26.29
2023-05-02T04:25:32.867Z,27.70
2023-05-02T04:26:32.882Z,27.28
2023-05-02T04:27:32.896Z,25.47
2023-05-02T04:28:32.921Z,25.08
2023-05-02T04:29:32.964Z,29.91
2023-05-02T04:30:33.009Z,26.53
2023-05-02T04:31:33.044Z,27.37
2023-05-02T04:32:33.049Z,27.49
2023-05-02T04:33:33.088Z,26.04
2023-05-02T04:34:33.154Z,27.61
2023-05-02T04:35:33.221Z,28.83
2023-05-02T04:36:33.277Z,29.12
2023-05-02T04:37:33.326Z,25.55
2023-05-02T04:38:33.358Z,27.72
2023-05-02T04:39:33.410Z,25.30
2023-05-02T04:40:33.432Z,26.39
2023-05-02T04:41:33.506Z,26.50
2023-05-02T04:42:33.523Z,26.77
2023-05-02T04:43:33.554Z,27.31
2023-05-02T04:44:33.601Z,27.13
2023-05-02T04:45:33.667Z,29.07
2023-05-02T04:46:33.810Z,27.50
2023-05-02T04:47:33.735Z,28.44
2023-05-02T04:48:33.782Z,32.72
2023-05-02T04:49:33.845Z,26.95
2023-05-02T04:50:33.899Z,26.77
2023-05-02T04:51:33.943Z,28.05
2023-05-02T04:52:34.009Z,27.45
2023-05-02T04:53:34.053Z,26.12
2023-05-02T04:54:34.093Z,27.34
2023-05-02T04:55:34.149Z,28.61
2023-05-02T04:56:34.205Z,27.55
2023-05-02T04:57:34.276Z,28.49
2023-05-02T04:58:34.318Z,27.42
2023-05-02T04:59:34.373Z,25.63
2023-05-02T05:00:34.449Z,26.15
2023-05-02T05:01:34.542Z,29.15
2023-05-02T05:02:34.677Z,25.57
2023-05-02T05:03:34.771Z,28.42
2023-05-02T05:04:34.629Z,27.30
2023-05-02T05:05:34.693Z,25.11
2023-05-02T05:06:34.745Z,26.37
2023-05-02T05:07:35.026Z,27.49
2023-05-02T05:08:34.755Z,28.32
2023-05-02T05:09:34.795Z,26.80
2023-05-02T05:10:34.853Z,25.35
2023-05-02T05:11:34.874Z,25.79
2023-05-02T05:12:34.898Z,26.05
2023-05-02T05:13:34.918Z,25.00
2023-05-02T05:14:34.948Z,25.00
2023-05-02T05:15:34.969Z,25.00
2023-05-02T05:16:35.058Z,25.00
2023-05-02T05:17:35.069Z,25.46
2023-05-02T05:18:35.031Z,27.01
2023-05-02T05:19:35.588Z,26.65
2023-05-02T05:20:35.120Z,25.37
2023-05-02T05:21:35.147Z,25.00
2023-05-02T05:22:35.154Z,25.68
2023-05-02T05:23:35.185Z,30.74
2023-05-02T05:24:35.251Z,31.52
2023-05-02T05:25:35.574Z,32.23
2023-05-02T05:26:35.265Z,29.55
2023-05-02T05:27:35.298Z,31.02
2023-05-02T05:28:35.342Z,34.96
2023-05-02T05:29:35.398Z,32.83
2023-05-02T05:30:35.415Z,32.72
2023-05-02T05:31:35.483Z,34.33
2023-05-02T05:32:35.553Z,35.30
2023-05-02T05:33:35.639Z,36.89
2023-05-02T05:34:35.544Z,36.47
2023-05-02T05:35:35.554Z,34.91
2023-05-02T05:36:35.587Z,37.22
2023-05-02T05:37:36.034Z,35.88
2023-05-02T05:38:35.660Z,35.92
2023-05-02T05:39:35.688Z,38.88
2023-05-02T05:40:35.712Z,39.46
2023-05-02T05:41:35.700Z,38.38
2023-05-02T05:42:36.061Z,40.90
2023-05-02T05:43:38.038Z,37.80
2023-05-02T05:44:35.763Z,43.67
2023-05-02T05:45:35.786Z,44.09
2023-05-02T05:46:35.796Z,88.46
2023-05-02T05:47:36.126Z,108.47
2023-05-02T05:48:35.807Z,81.44
2023-05-02T05:49:38.508Z,77.97
2023-05-02T05:50:35.831Z,78.09
2023-05-02T05:51:35.931Z,78.13
2023-05-02T05:52:35.873Z,74.08
2023-05-02T05:53:35.868Z,76.83
2023-05-02T05:54:36.063Z,86.06
2023-05-02T05:55:37.498Z,94.80
2023-05-02T05:56:36.094Z,106.76
2023-05-02T05:57:36.552Z,118.87
2023-05-02T05:58:36.151Z,118.40
2023-05-02T05:59:36.185Z,124.00
2023-05-02T06:00:36.316Z,132.93
2023-05-02T06:01:36.259Z,147.24
2023-05-02T06:02:36.718Z,148.71
2023-05-02T06:03:36.558Z,147.75
2023-05-02T06:04:36.545Z,172.16
2023-05-02T06:05:36.592Z,171.58
2023-05-02T06:06:36.704Z,171.88
2023-05-02T06:07:37.131Z,185.81
2023-05-02T06:08:36.768Z,189.56
2023-05-02T06:09:36.850Z,197.32
2023-05-02T06:10:36.882Z,197.50
2023-05-02T06:11:36.942Z,197.20
2023-05-02T06:12:37.064Z,202.19
2023-05-02T06:13:37.047Z,205.03
2023-05-02T06:14:37.586Z,207.73
2023-05-02T06:15:37.240Z,207.19
2023-05-02T06:16:37.243Z,206.93
2023-05-02T06:17:37.674Z,209.50
2023-05-02T06:18:37.314Z,209.20
2023-05-02T06:19:37.347Z,208.86
2023-05-02T06:20:37.850Z,205.51
2023-05-02T06:21:37.997Z,203.80
2023-05-02T06:22:38.042Z,197.23
2023-05-02T06:23:37.565Z,196.40
2023-05-02T06:24:37.559Z,191.64
2023-05-02T06:25:38.152Z,196.93
2023-05-02T06:26:38.478Z,196.24
2023-05-02T06:27:37.862Z,197.67
2023-05-02T06:28:38.545Z,194.22
2023-05-02T06:29:38.506Z,183.96
2023-05-02T06:30:41.320Z,191.92
2023-05-02T06:31:38.440Z,192.12
2023-05-02T06:32:38.061Z,192.56
2023-05-02T06:33:37.048Z,192.14
2023-05-02T06:34:38.279Z,192.32
2023-05-02T06:35:37.993Z,188.68
2023-05-02T06:36:37.992Z,190.76
2023-05-02T06:37:38.192Z,193.61
2023-05-02T06:38:38.110Z,196.07
2023-05-02T06:39:38.090Z,194.97
2023-05-02T06:40:38.153Z,196.68
2023-05-02T06:41:38.343Z,195.15
2023-05-02T06:42:39.499Z,188.51
2023-05-02T06:43:38.046Z,188.79
2023-05-02T06:44:38.078Z,189.16
2023-05-02T06:45:38.024Z,188.88
2023-05-02T06:46:38.008Z,188.26
2023-05-02T06:47:38.153Z,186.77
2023-05-02T06:48:38.030Z,185.92
2023-05-02T06:49:38.168Z,184.64
2023-05-02T06:50:38.277Z,184.09
2023-05-02T06:51:38.202Z,183.77
2023-05-02T06:52:38.108Z,180.41
2023-05-02T06:53:38.131Z,178.54
2023-05-02T06:54:38.012Z,174.72
2023-05-02T06:55:38.005Z,171.05
2023-05-02T06:56:38.037Z,169.07
2023-05-02T06:57:38.009Z,167.76
2023-05-02T06:58:38.066Z,168.25
2023-05-02T06:59:38.107Z,166.37
2023-05-02T07:00:38.187Z,166.15
2023-05-02T07:01:38.308Z,159.55
2023-05-02T07:02:38.182Z,164.41
2023-05-02T07:03:38.194Z,163.30
2023-05-02T07:04:38.814Z,160.87
2023-05-02T07:05:38.274Z,154.20
2023-05-02T07:06:38.342Z,158.22
2023-05-02T07:07:38.303Z,131.32
2023-05-02T07:08:38.336Z,119.25
2023-05-02T07:09:38.596Z,114.14
2023-05-02T07:10:38.391Z,104.99
2023-05-02T07:11:38.403Z,98.97
2023-05-02T07:12:38.583Z,89.71
2023-05-02T07:13:38.417Z,81.86
2023-05-02T07:14:38.577Z,64.56
2023-05-02T07:15:38.455Z,53.63
2023-05-02T07:16:38.589Z,52.62
2023-05-02T07:17:38.643Z,47.05
2023-05-02T07:18:38.570Z,47.82
2023-05-02T07:19:38.550Z,45.92
2023-05-02T07:20:38.607Z,44.25
2023-05-02T07:21:38.665Z,40.28
2023-05-02T07:22:39.075Z,42.31
2023-05-02T07:23:38.745Z,40.28
2023-05-02T07:24:39.154Z,41.40
2023-05-02T07:25:39.188Z,37.10
2023-05-02T07:26:38.803Z,39.55
2023-05-02T07:27:39.126Z,39.43
2023-05-02T07:28:39.895Z,41.52
2023-05-02T07:29:39.334Z,40.94
2023-05-02T07:30:39.107Z,44.23
2023-05-02T07:31:39.043Z,42.34
2023-05-02T07:32:39.071Z,58.24
2023-05-02T07:33:39.185Z,59.18
2023-05-02T07:34:39.669Z,61.74
2023-05-02T07:35:39.176Z,54.36
2023-05-02T07:36:39.617Z,45.33
2023-05-02T07:37:39.243Z,35.54
2023-05-02T07:38:40.291Z,50.68
2023-05-02T07:39:39.361Z,53.34
2023-05-02T07:40:39.397Z,32.64
2023-05-02T07:41:39.641Z,26.12
2023-05-02T07:42:39.464Z,26.19
2023-05-02T07:43:39.524Z,31.27
2023-05-02T07:44:39.636Z,47.46
2023-05-02T07:45:39.611Z,42.69
2023-05-02T07:46:39.680Z,66.85
2023-05-02T07:47:40.165Z,54.35
2023-05-02T07:48:39.724Z,77.23
2023-05-02T07:49:39.734Z,90.59
2023-05-02T07:50:39.798Z,92.45
2023-05-02T07:51:39.899Z,87.38
2023-05-02T07:52:40.108Z,92.01
2023-05-02T07:53:39.878Z,101.10
2023-05-02T07:54:43.111Z,90.19
2023-05-02T07:55:39.934Z,90.70
2023-05-02T07:56:39.923Z,92.99
2023-05-02T07:57:40.114Z,98.95
2023-05-02T07:58:39.911Z,94.50
2023-05-02T07:59:40.093Z,110.89
2023-05-02T08:00:39.913Z,117.81
2023-05-02T08:01:39.933Z,121.16
2023-05-02T08:02:40.025Z,117.52
2023-05-02T08:03:40.249Z,123.55
2023-05-02T08:04:40.202Z,131.50
2023-05-02T08:05:39.898Z,142.30
2023-05-02T08:06:39.964Z,140.20
2023-05-02T08:07:40.111Z,141.17
2023-05-02T08:08:39.892Z,147.52
2023-05-02T08:09:39.899Z,151.36
2023-05-02T08:10:40.101Z,134.17
2023-05-02T08:11:39.903Z,137.24
2023-05-02T08:12:39.902Z,146.40
2023-05-02T08:13:39.924Z,128.42
2023-05-02T08:14:40.102Z,133.60
2023-05-02T08:15:40.126Z,134.33
2023-05-02T08:16:40.026Z,142.95
2023-05-02T08:17:39.942Z,146.18
2023-05-02T08:18:39.902Z,124.86
2023-05-02T08:19:39.900Z,123.99
2023-05-02T08:20:40.106Z,119.81
2023-05-02T08:21:39.901Z,102.84
2023-05-02T08:22:39.898Z,118.19
2023-05-02T08:23:40.137Z,121.43
2023-05-02T08:24:39.905Z,128.90
2023-05-02T08:25:39.887Z,131.08
2023-05-02T08:26:39.880Z,141.40
2023-05-02T08:27:40.100Z,149.79
2023-05-02T08:28:39.878Z,149.54
2023-05-02T08:29:39.914Z,150.47
2023-05-02T08:30:39.870Z,150.21
2023-05-02T08:31:39.894Z,151.43
2023-05-02T08:32:40.128Z,149.94
2023-05-02T08:33:40.781Z,155.00
2023-05-02T08:34:39.854Z,153.47
2023-05-02T08:35:39.850Z,148.15
2023-05-02T08:36:39.867Z,145.82
2023-05-02T08:37:40.202Z,135.92
2023-05-02T08:38:39.860Z,118.65
2023-05-02T08:39:39.851Z,116.28
2023-05-02T08:40:42.438Z,122.72
2023-05-02T08:41:39.835Z,122.80
2023-05-02T08:42:39.827Z,96.38
2023-05-02T08:43:39.833Z,105.97
2023-05-02T08:44:40.112Z,118.67
2023-05-02T08:45:40.044Z,118.07
2023-05-02T08:46:39.870Z,130.91
2023-05-02T08:47:39.832Z,138.82
2023-05-02T08:48:39.796Z,142.37
2023-05-02T08:49:40.110Z,145.27
2023-05-02T08:50:39.821Z,144.45
2023-05-02T08:51:41.373Z,147.09
2023-05-02T08:52:39.786Z,147.35
2023-05-02T08:53:39.775Z,147.34
2023-05-02T08:54:39.769Z,148.78
2023-05-02T08:55:40.186Z,148.97
2023-05-02T08:56:40.161Z,152.54
2023-05-02T08:57:40.121Z,147.24
2023-05-02T08:58:40.490Z,126.07
2023-05-02T08:59:39.771Z,143.67
2023-05-02T09:00:39.762Z,146.59
2023-05-02T09:01:39.940Z,143.28
2023-05-02T09:02:39.796Z,139.19
2023-05-02T09:03:40.126Z,141.58
2023-05-02T09:04:39.808Z,133.27
2023-05-02T09:05:40.114Z,130.79
2023-05-02T09:06:39.807Z,138.12
2023-05-02T09:07:39.761Z,144.71
2023-05-02T09:08:41.112Z,151.73
2023-05-02T09:09:39.752Z,146.85
2023-05-02T09:10:39.787Z,149.69
2023-05-02T09:11:40.115Z,154.47
2023-05-02T09:12:39.919Z,153.82
2023-05-02T09:13:39.989Z,151.18
2023-05-02T09:14:40.034Z,149.42
2023-05-02T09:15:40.127Z,144.93
2023-05-02T09:16:40.319Z,137.53
2023-05-02T09:17:40.288Z,140.71
2023-05-02T09:18:40.624Z,138.80
2023-05-02T09:19:40.351Z,137.81
2023-05-02T09:20:40.615Z,134.90
2023-05-02T09:21:40.498Z,135.49
2023-05-02T09:22:40.547Z,133.87
2023-05-02T09:23:40.754Z,119.77
2023-05-02T09:24:41.781Z,116.74
2023-05-02T09:25:41.122Z,105.34
2023-05-02T09:26:40.792Z,113.02
2023-05-02T09:27:40.821Z,122.75
2023-05-02T09:28:41.140Z,117.35
2023-05-02T09:29:40.942Z,91.85
2023-05-02T09:30:41.164Z,77.34
2023-05-02T09:32:40.150Z,113.84
2023-05-02T09:33:41.082Z,113.05
2023-05-02T09:34:41.186Z,119.48
2023-05-02T09:35:41.656Z,103.96
2023-05-02T09:36:42.048Z,96.36
2023-05-02T09:37:41.816Z,99.81
2023-05-02T09:38:41.430Z,99.19
2023-05-02T09:39:41.778Z,92.46
2023-05-02T09:40:43.254Z,84.13
2023-05-02T09:41:41.537Z,85.63
2023-05-02T09:42:42.261Z,86.23
2023-05-02T09:43:41.525Z,86.25
2023-05-02T09:44:41.457Z,84.41
2023-05-02T09:45:41.579Z,68.96
2023-05-02T09:46:41.500Z,24.97
2023-05-02T09:47:41.415Z,0.00
2023-05-02T09:48:41.352Z,0.00
2023-05-02T09:49:41.359Z,0.00
2023-05-02T09:50:41.333Z,0.00
2023-05-02T09:51:41.336Z,29.54
2023-05-02T09:52:41.337Z,21.43
2023-05-02T09:53:41.646Z,27.34
2023-05-02T09:54:41.321Z,27.58
2023-05-02T09:55:41.313Z,27.68
2023-05-02T09:56:41.387Z,25.05
2023-05-02T09:57:41.322Z,25.07
2023-05-02T09:58:41.315Z,36.41
2023-05-02T09:59:42.348Z,37.22
2023-05-02T10:00:41.643Z,25.00
2023-05-02T10:01:41.336Z,25.00
2023-05-02T10:02:41.399Z,26.30
2023-05-02T10:03:41.659Z,26.44
2023-05-02T10:04:41.448Z,25.00
2023-05-02T10:05:41.391Z,25.00
2023-05-02T10:06:41.448Z,28.76
2023-05-02T10:07:41.408Z,36.32
2023-05-02T10:08:41.633Z,28.63
2023-05-02T10:09:41.455Z,29.11
2023-05-02T10:10:41.489Z,25.00
2023-05-02T10:11:41.513Z,25.00
2023-05-02T10:12:41.553Z,25.00
2023-05-02T10:13:41.659Z,27.34
2023-05-02T10:14:41.859Z,28.13
2023-05-02T10:15:41.664Z,25.00
2023-05-02T10:16:41.681Z,29.52
2023-05-02T10:17:42.091Z,30.48
2023-05-02T10:18:42.163Z,27.69
2023-05-02T10:19:42.156Z,25.25
2023-05-02T10:20:42.150Z,25.00
2023-05-02T10:21:41.912Z,25.00
2023-05-02T10:22:41.934Z,30.48
2023-05-02T10:23:42.142Z,25.00
2023-05-02T10:24:42.042Z,25.00
2023-05-02T10:25:42.060Z,31.29
2023-05-02T10:26:42.108Z,52.21
2023-05-02T10:27:42.167Z,66.51
2023-05-02T10:28:42.644Z,52.39
2023-05-02T10:29:42.270Z,43.02
2023-05-02T10:30:42.650Z,45.43
2023-05-02T10:31:44.723Z,36.86
2023-05-02T10:32:42.354Z,32.85
2023-05-02T10:33:42.365Z,25.70
2023-05-02T10:34:42.376Z,25.00
2023-05-02T10:35:42.657Z,25.27
2023-05-02T10:36:42.394Z,26.28
2023-05-02T10:37:42.417Z,27.81
2023-05-02T10:38:42.408Z,28.93
2023-05-02T10:39:42.407Z,34.87
2023-05-02T10:40:42.451Z,32.07
2023-05-02T10:41:42.431Z,28.92
2023-05-02T10:42:42.441Z,26.40
2023-05-02T10:43:42.440Z,25.00
2023-05-02T10:44:42.657Z,25.00
2023-05-02T10:45:42.511Z,26.64
2023-05-02T10:46:42.726Z,25.00
2023-05-02T10:47:42.545Z,38.83
2023-05-02T10:48:42.776Z,36.77
2023-05-02T10:49:42.525Z,39.31
2023-05-02T10:50:42.652Z,26.75
2023-05-02T10:51:42.558Z,25.65
2023-05-02T10:52:42.563Z,31.81
2023-05-02T10:53:42.688Z,33.47
2023-05-02T10:54:42.582Z,25.00
2023-05-02T10:55:42.585Z,25.31
2023-05-02T10:56:42.594Z,38.87
2023-05-02T10:57:42.660Z,50.10
2023-05-02T10:58:42.653Z,51.10
2023-05-02T10:59:42.681Z,43.63
2023-05-02T11:00:42.680Z,47.66
2023-05-02T11:01:42.648Z,52.30
2023-05-02T11:02:43.250Z,53.04
2023-05-02T11:03:42.712Z,52.63
2023-05-02T11:04:42.771Z,57.60
2023-05-02T11:05:43.154Z,54.91
2023-05-02T11:06:42.967Z,56.33
2023-05-02T11:07:42.949Z,52.15
2023-05-02T11:08:43.015Z,52.78
2023-05-02T11:09:43.105Z,58.08
2023-05-02T11:10:43.169Z,74.41
2023-05-02T11:11:43.630Z,188.14
2023-05-02T11:12:44.181Z,170.23
2023-05-02T11:13:43.657Z,163.69
2023-05-02T11:14:43.675Z,146.51
2023-05-02T11:15:43.490Z,133.26
2023-05-02T11:16:43.591Z,124.59
2023-05-02T11:17:43.706Z,134.88
2023-05-02T11:18:44.159Z,136.66
2023-05-02T11:19:43.702Z,127.54
2023-05-02T11:20:44.203Z,123.51
2023-05-02T11:21:43.778Z,108.16
2023-05-02T11:22:43.792Z,98.30
2023-05-02T11:23:44.670Z,87.16
2023-05-02T11:24:43.815Z,77.92
2023-05-02T11:25:44.194Z,79.29
2023-05-02T11:26:43.866Z,69.62
2023-05-02T11:27:43.944Z,72.12
2023-05-02T11:28:43.910Z,84.01
2023-05-02T11:29:43.941Z,101.48
2023-05-02T11:30:44.235Z,116.31
2023-05-02T11:31:44.038Z,114.25
2023-05-02T11:32:44.098Z,104.73
2023-05-02T11:33:44.037Z,104.23
2023-05-02T11:34:44.060Z,101.91
2023-05-02T11:35:44.661Z,118.54
2023-05-02T11:36:44.137Z,118.11
2023-05-02T11:37:44.124Z,142.39
2023-05-02T11:38:44.235Z,184.15
2023-05-02T11:39:44.158Z,243.06
2023-05-02T11:40:44.230Z,328.78
2023-05-02T11:41:44.429Z,403.52
2023-05-02T11:42:44.385Z,410.78
2023-05-02T11:43:44.671Z,364.36
2023-05-02T11:44:45.550Z,354.73
2023-05-02T11:45:44.642Z,341.30
2023-05-02T11:46:44.855Z,334.06
2023-05-02T11:47:44.816Z,310.39
2023-05-02T11:48:44.835Z,294.54
2023-05-02T11:49:45.191Z,289.53
2023-05-02T11:50:49.578Z,271.88
2023-05-02T11:51:44.977Z,270.66
2023-05-02T11:52:45.183Z,272.65
2023-05-02T11:53:44.997Z,273.37
2023-05-02T11:54:45.037Z,266.25
2023-05-02T11:55:45.174Z,254.15
2023-05-02T11:56:45.018Z,249.18
2023-05-02T11:57:45.073Z,249.26
2023-05-02T11:58:45.027Z,246.85
2023-05-02T11:59:45.035Z,246.25
2023-05-02T12:00:45.179Z,244.71
2023-05-02T12:01:45.035Z,242.85
2023-05-02T12:02:45.116Z,236.63
2023-05-02T12:03:45.442Z,231.65
2023-05-02T12:04:45.059Z,234.83
2023-05-02T12:05:45.091Z,237.12
2023-05-02T12:06:45.105Z,237.46
2023-05-02T12:07:45.207Z,247.52
2023-05-02T12:08:45.072Z,244.92
2023-05-02T12:09:45.083Z,241.01
2023-05-02T12:10:45.210Z,238.44
2023-05-02T12:11:45.074Z,240.02
2023-05-02T12:12:45.144Z,237.10
2023-05-02T12:13:45.214Z,236.49
2023-05-02T12:14:45.647Z,232.39
2023-05-02T12:15:45.526Z,232.35
2023-05-02T12:16:45.631Z,227.61
2023-05-02T12:17:45.416Z,225.96
2023-05-02T12:18:45.312Z,228.37
2023-05-02T12:19:45.074Z,226.10
2023-05-02T12:20:45.513Z,226.56
2023-05-02T12:21:45.062Z,227.84
2023-05-02T12:22:45.390Z,225.50
2023-05-02T12:23:45.228Z,223.37
2023-05-02T12:24:45.224Z,228.45
2023-05-02T12:25:45.527Z,236.70
2023-05-02T12:26:45.078Z,239.39
2023-05-02T12:27:45.083Z,243.68
2023-05-02T12:28:45.190Z,246.55
2023-05-02T12:29:45.338Z,246.61
2023-05-02T12:30:45.296Z,243.23
2023-05-02T12:31:45.468Z,245.42
2023-05-02T12:32:45.649Z,240.47
2023-05-02T12:33:45.501Z,242.44
2023-05-02T12:34:45.066Z,241.55
2023-05-02T12:35:45.198Z,236.10
2023-05-02T12:36:45.073Z,231.57
2023-05-02T12:37:45.677Z,234.02
2023-05-02T12:38:45.401Z,233.84
2023-05-02T12:39:45.419Z,237.69
2023-05-02T12:40:45.482Z,235.61
2023-05-02T12:41:45.563Z,240.07
2023-05-02T12:42:45.700Z,239.92
2023-05-02T12:43:46.215Z,237.11
2023-05-02T12:44:45.780Z,238.42
2023-05-02T12:45:46.033Z,235.31